createdAt,value
2018-02-08T00:02:20.873Z,101333.72
2018-02-08T00:04:46.709Z,101332.11
2018-02-08T00:07:13.530Z,101335.59
2018-02-08T00:09:40.317Z,101338.13
2018-02-08T00:12:07.091Z,101333.69
2018-02-08T00:14:32.909Z,101335.26
2018-02-08T00:16:58.717Z,101336.67
2018-02-08T00:19:25.377Z,101337.93
2018-02-08T00:21:52.149Z,101340.04
2018-02-08T00:24:17.954Z,101343.45
2018-02-08T00:26:43.769Z,101339.33
2018-02-08T00:29:10.505Z,101340.39
2018-02-08T00:31:36.306Z,101351.91
2018-02-08T00:34:03.144Z,101346.70
2018-02-08T00:36:28.954Z,101347.89
2018-02-08T00:38:54.764Z,101352.53
2018-02-08T00:41:20.570Z,101358.27
2018-02-08T00:43:46.377Z,101363.18
2018-02-08T00:46:12.301Z,101362.59
2018-02-08T00:48:38.106Z,101364.75
2018-02-08T00:51:04.009Z,101374.23
2018-02-08T00:53:29.870Z,101370.23
2018-02-08T00:55:55.681Z,101372.74
2018-02-08T00:58:21.482Z,101373.38
2018-02-08T01:00:47.289Z,101370.44
2018-02-08T01:03:13.099Z,101370.01
2018-02-08T01:05:38.901Z,101369.70
2018-02-08T01:08:04.715Z,101365.55
2018-02-08T01:10:30.518Z,101373.95
2018-02-08T01:12:56.317Z,101365.34
2018-02-08T01:15:22.164Z,101368.66
2018-02-08T01:17:47.974Z,101365.39
2018-02-08T01:20:13.795Z,101363.44
2018-02-08T01:22:39.641Z,101366.15
2018-02-08T01:25:05.449Z,101372.73
2018-02-08T01:27:31.403Z,101375.64
2018-02-08T01:29:57.214Z,101379.00
2018-02-08T01:32:23.034Z,101380.66
2018-02-08T01:34:48.841Z,101377.28
2018-02-08T01:37:14.639Z,101374.53
2018-02-08T01:39:40.449Z,101371.38
2018-02-08T01:42:06.261Z,101369.66
2018-02-08T01:44:32.958Z,101374.20
2018-02-08T01:46:58.772Z,101373.36
2018-02-08T01:49:30.794Z,101374.48
2018-02-08T01:51:56.600Z,101376.53
2018-02-08T01:54:22.406Z,101376.34
2018-02-08T01:56:48.205Z,101375.38
2018-02-08T01:59:14.049Z,101384.14
2018-02-08T02:01:40.813Z,101382.16
2018-02-08T02:04:06.662Z,101373.34
2018-02-08T02:06:32.526Z,101384.17
2018-02-08T02:08:58.369Z,101388.39
2018-02-08T02:11:24.178Z,101381.11
2018-02-08T02:13:49.986Z,101378.64
2018-02-08T02:16:16.669Z,101381.02
2018-02-08T02:18:42.510Z,101378.42
2018-02-08T02:21:09.114Z,101382.00
2018-02-08T02:23:35.926Z,101382.22
2018-02-08T02:26:01.729Z,101385.22
2018-02-08T02:28:27.549Z,101384.05
2018-02-08T02:30:54.323Z,101380.92
2018-02-08T02:33:20.946Z,101383.39
2018-02-08T02:35:46.814Z,101385.34
2018-02-08T02:38:13.449Z,101380.64
2018-02-08T02:40:40.282Z,101375.20
2018-02-08T02:43:07.090Z,101385.84
2018-02-08T02:45:33.908Z,101381.47
2018-02-08T02:48:00.746Z,101386.77
2018-02-08T02:50:27.374Z,101384.59
2018-02-08T02:52:53.190Z,101381.06
2018-02-08T02:55:19.014Z,101377.40
2018-02-08T02:57:44.826Z,101382.16
2018-02-08T03:00:10.653Z,101392.73
2018-02-08T03:02:36.454Z,101393.88
2018-02-08T03:05:02.313Z,101397.94
2018-02-08T03:07:28.122Z,101391.59
2018-02-08T03:09:53.982Z,101383.89
2018-02-08T03:12:19.814Z,101385.42
2018-02-08T03:14:45.634Z,101383.05
2018-02-08T03:17:11.442Z,101393.09
2018-02-08T03:19:37.254Z,101390.28
2018-02-08T03:22:03.122Z,101392.34
2018-02-08T03:24:28.936Z,101391.26
2018-02-08T03:26:54.750Z,101389.42
2018-02-08T03:29:20.583Z,101386.95
2018-02-08T03:31:46.420Z,101392.79
2018-02-08T03:34:12.228Z,101388.95
2018-02-08T03:36:38.054Z,101386.41
2018-02-08T03:39:03.898Z,101394.94
2018-02-08T03:41:29.722Z,101390.27
2018-02-08T03:43:55.535Z,101389.19
2018-02-08T03:46:21.515Z,101387.55
2018-02-08T03:48:47.370Z,101384.43
2018-02-08T03:51:13.222Z,101389.47
2018-02-08T03:53:39.037Z,101392.70
2018-02-08T03:56:04.850Z,101397.20
2018-02-08T03:58:30.657Z,101392.90
2018-02-08T04:00:56.474Z,101398.27
2018-02-08T04:03:22.282Z,101400.14
2018-02-08T04:05:48.121Z,101405.38
2018-02-08T04:08:13.936Z,101398.80
2018-02-08T04:10:39.753Z,101404.35
2018-02-08T04:13:05.573Z,101399.20
2018-02-08T04:15:31.390Z,101404.36
2018-02-08T04:17:57.210Z,101412.19
2018-02-08T04:20:23.023Z,101408.64
2018-02-08T04:22:48.882Z,101418.41
2018-02-08T04:25:14.695Z,101413.50
2018-02-08T04:27:40.499Z,101416.55
2018-02-08T04:30:06.375Z,101417.08
2018-02-08T04:32:32.185Z,101416.66
2018-02-08T04:34:58.000Z,101418.40
2018-02-08T04:37:23.830Z,101422.34
2018-02-08T04:39:55.826Z,101431.13
2018-02-08T04:42:27.787Z,101433.87
2018-02-08T04:44:59.626Z,101431.91
2018-02-08T04:50:18.421Z,101432.55
2018-02-08T04:52:44.230Z,101439.55
2018-02-08T04:55:10.079Z,101436.14
2018-02-08T04:57:35.898Z,101436.62
2018-02-08T05:00:02.685Z,101434.55
2018-02-08T05:02:28.516Z,101430.19
2018-02-08T05:04:54.362Z,101434.98
2018-02-08T05:07:20.186Z,101440.08
2018-02-08T05:09:45.993Z,101443.08
2018-02-08T05:12:11.805Z,101447.76
2018-02-08T05:14:37.614Z,101455.45
2018-02-08T05:17:03.615Z,101459.80
2018-02-08T05:19:29.479Z,101442.82
2018-02-08T05:21:55.290Z,101451.75
2018-02-08T05:24:21.097Z,101455.11
2018-02-08T05:26:46.910Z,101459.35
2018-02-08T05:29:12.725Z,101459.68
2018-02-08T05:31:38.557Z,101466.09
2018-02-08T05:34:04.370Z,101463.84
2018-02-08T05:36:30.186Z,101467.31
2018-02-08T05:38:56.057Z,101461.69
2018-02-08T05:41:21.865Z,101471.13
2018-02-08T05:43:47.665Z,101470.96
2018-02-08T05:46:13.533Z,101468.95
2018-02-08T05:48:39.334Z,101473.02
2018-02-08T05:51:05.145Z,101478.10
2018-02-08T05:53:30.969Z,101475.58
2018-02-08T05:55:56.784Z,101481.36
2018-02-08T05:58:22.598Z,101478.46
2018-02-08T06:00:48.406Z,101485.65
2018-02-08T06:03:14.223Z,101490.77
2018-02-08T06:05:40.035Z,101486.40
2018-02-08T06:08:05.838Z,101498.87
2018-02-08T06:10:31.647Z,101499.77
2018-02-08T06:12:57.654Z,101498.87
2018-02-08T06:15:23.459Z,101501.42
2018-02-08T06:17:49.262Z,101504.27
2018-02-08T06:20:15.074Z,101505.70
2018-02-08T06:22:40.953Z,101510.44
2018-02-08T06:25:06.772Z,101510.80
2018-02-08T06:27:32.581Z,101511.81
2018-02-08T06:29:58.386Z,101510.15
2018-02-08T06:32:24.203Z,101521.17
2018-02-08T06:34:50.013Z,101516.02
2018-02-08T06:37:15.822Z,101511.63
2018-02-08T06:39:41.640Z,101518.55
2018-02-08T06:42:07.501Z,101520.02
2018-02-08T06:44:33.350Z,101523.60
2018-02-08T06:46:59.162Z,101524.10
2018-02-08T06:49:24.977Z,101533.43
2018-02-08T06:51:50.814Z,101535.70
2018-02-08T06:54:16.617Z,101536.66
2018-02-08T06:56:42.427Z,101532.63
2018-02-08T06:59:08.270Z,101534.63
2018-02-08T07:01:34.074Z,101534.58
2018-02-08T07:03:59.878Z,101535.89
2018-02-08T07:06:25.682Z,101533.32
2018-02-08T07:08:51.526Z,101535.91
2018-02-08T07:11:17.338Z,101537.97
2018-02-08T07:13:43.156Z,101540.22
2018-02-08T07:16:09.030Z,101535.58
2018-02-08T07:18:34.842Z,101534.38
2018-02-08T07:21:00.663Z,101534.03
2018-02-08T07:23:26.466Z,101533.87
2018-02-08T07:25:52.280Z,101536.48
2018-02-08T07:28:18.102Z,101529.58
2018-02-08T07:30:43.958Z,101534.75
2018-02-08T07:33:09.773Z,101536.75
2018-02-08T07:35:35.593Z,101537.80
2018-02-08T07:38:01.412Z,101538.48
2018-02-08T07:40:27.214Z,101541.77
2018-02-08T07:42:53.023Z,101542.88
2018-02-08T07:45:18.834Z,101544.77
2018-02-08T07:47:44.694Z,101545.91
2018-02-08T07:50:10.503Z,101547.61
2018-02-08T07:52:36.333Z,101552.52
2018-02-08T07:55:02.139Z,101549.20
2018-02-08T07:57:27.943Z,101543.80
2018-02-08T07:59:53.762Z,101546.66
2018-02-08T08:02:19.571Z,101542.56
2018-02-08T08:04:45.377Z,101549.03
2018-02-08T08:07:11.178Z,101549.77
2018-02-08T08:09:36.998Z,101554.20
2018-02-08T08:12:02.822Z,101556.91
2018-02-08T08:14:28.681Z,101555.13
2018-02-08T08:16:54.493Z,101557.50
2018-02-08T08:19:21.246Z,101565.59
2018-02-08T08:21:47.059Z,101564.31
2018-02-08T08:24:12.880Z,101567.29
2018-02-08T08:26:38.682Z,101567.58
2018-02-08T08:29:04.490Z,101569.70
2018-02-08T08:31:30.302Z,101570.61
2018-02-08T08:33:56.110Z,101577.07
2018-02-08T08:36:21.925Z,101579.84
2018-02-08T08:38:47.745Z,101580.64
2018-02-08T08:41:13.561Z,101580.70
2018-02-08T08:43:39.366Z,101580.78
2018-02-08T08:46:05.178Z,101578.55
2018-02-08T08:48:31.006Z,101581.77
2018-02-08T08:50:56.817Z,101573.25
2018-02-08T08:53:22.630Z,101577.44
2018-02-08T08:55:48.441Z,101583.47
2018-02-08T08:58:14.255Z,101575.33
2018-02-08T09:00:40.065Z,101582.54
2018-02-08T09:03:05.870Z,101584.83
2018-02-08T09:05:31.677Z,101583.44
2018-02-08T09:07:57.501Z,101586.84
2018-02-08T09:10:23.307Z,101587.83
2018-02-08T09:12:49.116Z,101591.03
2018-02-08T09:15:14.934Z,101590.34
2018-02-08T09:17:40.753Z,101590.19
2018-02-08T09:20:06.618Z,101593.02
2018-02-08T09:22:32.435Z,101597.34
2018-02-08T09:24:58.258Z,101592.18
2018-02-08T09:27:24.076Z,101594.06
2018-02-08T09:29:49.877Z,101596.16
2018-02-08T09:32:15.699Z,101597.67
2018-02-08T09:34:41.506Z,101602.49
2018-02-08T09:37:07.317Z,101600.03
2018-02-08T09:39:33.131Z,101606.19
2018-02-08T09:41:58.937Z,101608.17
2018-02-08T09:44:24.755Z,101607.66
2018-02-08T09:46:50.569Z,101608.70
2018-02-08T09:49:16.383Z,101616.82
2018-02-08T09:51:42.193Z,101608.75
2018-02-08T09:54:08.039Z,101612.01
2018-02-08T09:56:33.847Z,101612.50
2018-02-08T09:58:59.691Z,101611.19
2018-02-08T10:01:25.495Z,101616.44
2018-02-08T10:03:51.294Z,101611.09
2018-02-08T10:06:17.098Z,101616.86
2018-02-08T10:08:42.905Z,101618.74
2018-02-08T10:11:08.718Z,101606.97
2018-02-08T10:13:34.571Z,101608.05
2018-02-08T10:16:00.460Z,101608.44
2018-02-08T10:18:26.274Z,101604.02
2018-02-08T10:20:52.078Z,101601.77
2018-02-08T10:23:17.884Z,101602.17
2018-02-08T10:25:43.693Z,101598.34
2018-02-08T10:28:09.499Z,101589.03
2018-02-08T10:30:35.311Z,101594.52
2018-02-08T10:33:01.158Z,101597.73
2018-02-08T10:35:27.995Z,101597.13
2018-02-08T10:37:53.818Z,101596.77
2018-02-08T10:40:19.626Z,101600.70
2018-02-08T10:42:45.426Z,101595.45
2018-02-08T10:45:11.246Z,101597.31
2018-02-08T10:47:37.055Z,101592.05
2018-02-08T10:50:02.876Z,101598.15
2018-02-08T10:52:28.716Z,101601.05
2018-02-08T10:54:54.585Z,101597.30
2018-02-08T10:57:20.393Z,101595.45
2018-02-08T10:59:46.198Z,101593.98
2018-02-08T11:02:12.007Z,101582.78
2018-02-08T11:04:37.810Z,101594.62
2018-02-08T11:07:03.626Z,101589.06
2018-02-08T11:09:29.481Z,101585.61
2018-02-08T11:11:56.218Z,101589.24
2018-02-08T11:14:22.061Z,101585.05
2018-02-08T11:16:47.865Z,101582.31
2018-02-08T11:19:13.702Z,101586.72
2018-02-08T11:21:39.510Z,101582.42
2018-02-08T11:24:05.363Z,101580.47
2018-02-08T11:26:31.173Z,101581.89
2018-02-08T11:28:56.996Z,101587.13
2018-02-08T11:31:22.812Z,101580.97
2018-02-08T11:33:48.670Z,101583.16
2018-02-08T11:36:14.475Z,101582.16
2018-02-08T11:38:40.312Z,101583.98
2018-02-08T11:41:06.153Z,101574.89
2018-02-08T11:43:31.958Z,101579.98
2018-02-08T11:45:57.766Z,101574.09
2018-02-08T11:48:23.573Z,101574.66
2018-02-08T11:50:49.381Z,101572.63
2018-02-08T11:53:15.222Z,101571.63
2018-02-08T11:55:41.030Z,101564.47
2018-02-08T11:58:06.908Z,101570.09
2018-02-08T12:00:32.714Z,101567.94
2018-02-08T12:02:58.565Z,101569.94
2018-02-08T12:05:24.375Z,101569.98
2018-02-08T12:07:50.180Z,101566.75
2018-02-08T12:10:15.990Z,101572.84
2018-02-08T12:12:41.798Z,101565.47
2018-02-08T12:15:07.601Z,101562.67
2018-02-08T12:17:33.446Z,101566.36
2018-02-08T12:19:59.285Z,101559.30
2018-02-08T12:22:25.086Z,101553.77
2018-02-08T12:24:50.882Z,101552.78
2018-02-08T12:27:16.694Z,101555.95
2018-02-08T12:29:42.613Z,101557.46
2018-02-08T12:32:08.422Z,101552.31
2018-02-08T12:34:34.263Z,101554.80
2018-02-08T12:37:00.067Z,101555.06
2018-02-08T12:39:25.870Z,101550.95
2018-02-08T12:41:51.679Z,101545.91
2018-02-08T12:44:17.481Z,101542.42
2018-02-08T12:46:43.302Z,101541.64
2018-02-08T12:49:09.142Z,101540.00
2018-02-08T12:51:34.986Z,101534.79
2018-02-08T12:54:00.834Z,101531.16
2018-02-08T12:56:26.683Z,101531.75
2018-02-08T12:58:52.489Z,101536.28
2018-02-08T13:01:18.293Z,101531.59
2018-02-08T13:03:44.099Z,101535.16
2018-02-08T13:06:09.914Z,101529.53
2018-02-08T13:08:35.726Z,101523.89
2018-02-08T13:11:01.547Z,101523.47
2018-02-08T13:13:27.362Z,101524.00
2018-02-08T13:15:53.177Z,101525.13
2018-02-08T13:18:18.986Z,101529.11
2018-02-08T13:20:44.786Z,101537.31
2018-02-08T13:23:10.627Z,101533.00
2018-02-08T13:25:36.438Z,101532.27
2018-02-08T13:28:02.254Z,101530.38
2018-02-08T13:30:28.171Z,101527.69
2018-02-08T13:32:53.986Z,101532.84
2018-02-08T13:35:19.882Z,101529.37
2018-02-08T13:37:45.747Z,101531.59
2018-02-08T13:43:13.442Z,101539.37
2018-02-08T13:45:39.270Z,101531.78
2018-02-08T13:48:14.030Z,101537.47
2018-02-08T13:54:01.978Z,101538.62
2018-02-08T13:56:33.909Z,101541.73
2018-02-08T13:59:16.688Z,101545.46
2018-02-08T14:01:43.386Z,101541.84
2018-02-08T14:04:09.206Z,101541.11
2018-02-08T14:06:35.013Z,101545.48
2018-02-08T14:09:00.861Z,101533.15
2018-02-08T14:11:26.666Z,101537.75
2018-02-08T14:13:52.475Z,101536.11
2018-02-08T14:16:18.289Z,101529.31
2018-02-08T14:18:44.090Z,101532.06
2018-02-08T14:21:09.895Z,101535.42
2018-02-08T14:23:35.734Z,101538.37
2018-02-08T14:26:01.539Z,101536.28
2018-02-08T14:28:27.342Z,101533.69
2018-02-08T14:30:53.277Z,101531.80
2018-02-08T14:33:19.084Z,101533.81
2018-02-08T14:35:45.026Z,101534.89
2018-02-08T14:38:10.835Z,101533.64
2018-02-08T14:40:36.652Z,101530.36
2018-02-08T14:43:02.467Z,101538.96
2018-02-08T14:45:28.274Z,101534.06
2018-02-08T14:47:54.079Z,101540.49
2018-02-08T14:50:19.882Z,101539.86
2018-02-08T14:52:45.690Z,101540.49
2018-02-08T14:55:11.491Z,101532.22
2018-02-08T14:57:37.298Z,101532.22
2018-02-08T15:00:03.138Z,101533.42
2018-02-08T15:02:28.950Z,101537.58
2018-02-08T15:04:54.753Z,101528.06
2018-02-08T15:07:20.562Z,101528.86
2018-02-08T15:09:46.365Z,101535.66
2018-02-08T15:12:12.175Z,101533.05
2018-02-08T15:14:38.025Z,101533.49
2018-02-08T15:17:03.826Z,101534.91
2018-02-08T15:19:29.671Z,101537.63
2018-02-08T15:21:55.479Z,101535.95
2018-02-08T15:24:21.354Z,101535.85
2018-02-08T15:26:47.171Z,101531.80
2018-02-08T15:29:13.014Z,101530.23
2018-02-08T15:31:38.902Z,101533.64
2018-02-08T15:34:04.710Z,101534.80
2018-02-08T15:36:30.543Z,101534.48
2018-02-08T15:38:56.351Z,101537.63
2018-02-08T15:41:22.194Z,101540.12
2018-02-08T15:43:48.006Z,101542.00
2018-02-08T15:46:13.854Z,101534.73
2018-02-08T15:48:39.658Z,101532.20
2018-02-08T15:51:05.468Z,101535.91
2018-02-08T15:53:31.274Z,101538.80
2018-02-08T15:55:57.131Z,101545.11
2018-02-08T15:58:22.981Z,101551.05
2018-02-08T16:00:48.822Z,101549.10
2018-02-08T16:03:14.673Z,101551.38
2018-02-08T16:05:40.486Z,101548.79
2018-02-08T16:08:06.295Z,101551.56
2018-02-08T16:10:32.099Z,101553.21
2018-02-08T16:12:57.942Z,101549.96
2018-02-08T16:15:23.782Z,101550.39
2018-02-08T16:17:49.587Z,101554.07
2018-02-08T16:20:15.433Z,101558.85
2018-02-08T16:22:41.242Z,101565.75
2018-02-08T16:25:07.127Z,101575.70
2018-02-08T16:27:32.933Z,101574.02
2018-02-08T16:29:58.779Z,101576.45
2018-02-08T16:32:24.586Z,101578.70
2018-02-08T16:34:50.426Z,101577.13
2018-02-08T16:37:16.242Z,101574.92
2018-02-08T16:39:42.050Z,101577.91
2018-02-08T16:42:07.865Z,101572.47
2018-02-08T16:44:33.676Z,101574.80
2018-02-08T16:46:59.486Z,101574.43
2018-02-08T16:49:25.289Z,101575.53
2018-02-08T16:51:51.093Z,101580.75
2018-02-08T16:54:16.908Z,101570.91
2018-02-08T16:56:42.744Z,101574.47
2018-02-08T16:59:08.563Z,101572.37
2018-02-08T17:01:34.423Z,101565.73
2018-02-08T17:04:00.372Z,101564.21
2018-02-08T17:06:26.194Z,101566.48
2018-02-08T17:08:52.043Z,101560.84
2018-02-08T17:11:17.893Z,101563.01
2018-02-08T17:13:43.698Z,101569.22
2018-02-08T17:16:09.549Z,101567.73
2018-02-08T17:18:35.357Z,101568.52
2018-02-08T17:21:01.174Z,101578.03
2018-02-08T17:23:26.987Z,101580.72
2018-02-08T17:25:52.807Z,101575.81
2018-02-08T17:28:18.622Z,101576.79
2018-02-08T17:30:44.451Z,101580.09
2018-02-08T17:33:10.272Z,101584.97
2018-02-08T17:35:36.083Z,101580.11
2018-02-08T17:38:01.889Z,101585.87
2018-02-08T17:40:27.751Z,101591.23
2018-02-08T17:42:53.580Z,101586.40
2018-02-08T17:45:19.547Z,101581.91
2018-02-08T17:47:45.399Z,101578.98
2018-02-08T17:50:11.218Z,101577.28
2018-02-08T17:52:37.079Z,101578.00
2018-02-08T17:55:02.907Z,101579.28
2018-02-08T17:57:28.727Z,101578.75
2018-02-08T17:59:54.555Z,101572.64
2018-02-08T18:02:20.534Z,101573.09
2018-02-08T18:04:46.346Z,101572.90
2018-02-08T18:07:12.150Z,101577.84
2018-02-08T18:09:37.974Z,101571.83
2018-02-08T18:12:03.778Z,101579.16
2018-02-08T18:14:29.585Z,101579.32
2018-02-08T18:16:55.446Z,101580.31
2018-02-08T18:19:21.254Z,101578.20
2018-02-08T18:21:47.063Z,101580.92
2018-02-08T18:24:13.050Z,101582.13
2018-02-08T18:26:38.863Z,101586.36
2018-02-08T18:29:04.682Z,101578.44
2018-02-08T18:31:30.617Z,101582.67
2018-02-08T18:33:56.425Z,101579.64
2018-02-08T18:36:22.247Z,101586.49
2018-02-08T18:38:48.058Z,101586.37
2018-02-08T18:41:13.881Z,101585.60
2018-02-08T18:43:39.734Z,101588.34
2018-02-08T18:46:05.620Z,101590.88
2018-02-08T18:48:31.432Z,101587.18
2018-02-08T18:50:57.239Z,101588.94
2018-02-08T18:53:23.207Z,101586.17
2018-02-08T18:55:49.035Z,101584.38
2018-02-08T18:58:14.942Z,101580.53
2018-02-08T19:00:40.806Z,101583.78
2018-02-08T19:03:06.625Z,101582.28
2018-02-08T19:05:32.483Z,101581.99
2018-02-08T19:07:58.608Z,101579.55
2018-02-08T19:10:24.551Z,101575.35
2018-02-08T19:12:50.408Z,101575.97
2018-02-08T19:15:16.445Z,101579.05
2018-02-08T19:17:42.279Z,101578.30
2018-02-08T19:20:08.107Z,101581.34
2018-02-08T19:22:33.922Z,101589.03
2018-02-08T19:24:59.810Z,101584.52
2018-02-08T19:27:25.630Z,101582.97
2018-02-08T19:29:51.486Z,101581.47
2018-02-08T19:32:17.290Z,101581.69
2018-02-08T19:34:43.150Z,101583.75
2018-02-08T19:37:08.967Z,101580.86
2018-02-08T19:39:34.791Z,101582.43
2018-02-08T19:42:00.632Z,101582.01
2018-02-08T19:44:26.542Z,101584.06
2018-02-08T19:46:52.462Z,101586.08
2018-02-08T19:49:19.190Z,101581.59
2018-02-08T19:51:46.144Z,101586.25
2018-02-08T19:54:12.958Z,101584.41
2018-02-08T19:56:39.976Z,101586.92
2018-02-08T19:59:06.652Z,101589.83
2018-02-08T20:01:33.603Z,101582.55
2018-02-08T20:04:00.044Z,101585.14
2018-02-08T20:06:26.073Z,101584.76
2018-02-08T20:08:51.955Z,101586.63
2018-02-08T20:11:17.838Z,101584.42
2018-02-08T20:13:43.653Z,101584.94
2018-02-08T20:16:09.634Z,101579.77
2018-02-08T20:18:35.607Z,101587.19
2018-02-08T20:21:01.550Z,101588.61
2018-02-08T20:23:28.331Z,101595.73
2018-02-08T20:25:54.306Z,101593.98
2018-02-08T20:28:20.220Z,101592.04
2018-02-08T20:30:52.139Z,101596.22
2018-02-08T20:33:17.966Z,101600.39
2018-02-08T20:35:43.954Z,101588.53
2018-02-08T20:38:09.770Z,101595.56
2018-02-08T20:40:35.587Z,101596.73
2018-02-08T20:43:07.603Z,101593.84
2018-02-08T20:45:33.553Z,101602.13
2018-02-08T20:47:59.518Z,101592.80
2018-02-08T20:50:26.419Z,101599.13
2018-02-08T20:52:52.338Z,101600.72
2018-02-08T20:55:18.383Z,101596.37
2018-02-08T20:57:44.399Z,101602.41
2018-02-08T21:00:11.394Z,101591.00
2018-02-08T21:02:37.355Z,101593.70
2018-02-08T21:05:03.212Z,101595.30
2018-02-08T21:07:29.034Z,101588.75
2018-02-08T21:09:57.091Z,101589.80
2018-02-08T21:12:23.203Z,101583.78
2018-02-08T21:14:49.088Z,101587.37
2018-02-08T21:17:15.055Z,101583.69
2018-02-08T21:19:41.071Z,101583.89
2018-02-08T21:22:06.979Z,101586.44
2018-02-08T21:24:32.911Z,101586.03
2018-02-08T21:26:58.826Z,101587.35
2018-02-08T21:29:24.959Z,101587.66
2018-02-08T21:31:50.766Z,101584.73
2018-02-08T21:34:16.597Z,101589.06
2018-02-08T21:36:42.402Z,101587.50
2018-02-08T21:39:10.405Z,101584.58
2018-02-08T21:41:36.219Z,101581.40
2018-02-08T21:44:02.133Z,101578.72
2018-02-08T21:46:28.291Z,101576.41
2018-02-08T21:48:54.172Z,101578.03
2018-02-08T21:51:19.978Z,101579.77
2018-02-08T21:53:45.822Z,101573.94
2018-02-08T21:56:11.642Z,101575.45
2018-02-08T21:58:37.554Z,101570.69
2018-02-08T22:01:03.372Z,101580.66
2018-02-08T22:03:29.305Z,101574.89
2018-02-08T22:05:55.126Z,101576.30
2018-02-08T22:08:20.931Z,101577.73
2018-02-08T22:10:46.744Z,101577.59
2018-02-08T22:13:12.556Z,101572.73
2018-02-08T22:15:38.382Z,101574.80
2018-02-08T22:18:04.204Z,101572.95
2018-02-08T22:20:30.010Z,101573.76
2018-02-08T22:22:55.822Z,101576.91
2018-02-08T22:25:21.678Z,101571.89
2018-02-08T22:27:47.494Z,101577.72
2018-02-08T22:30:13.301Z,101573.37
2018-02-08T22:32:39.115Z,101571.66
2018-02-08T22:35:04.926Z,101572.89
2018-02-08T22:37:30.734Z,101575.84
2018-02-08T22:39:56.586Z,101574.89
2018-02-08T22:42:22.407Z,101579.77
2018-02-08T22:44:48.265Z,101579.17
2018-02-08T22:47:14.078Z,101582.41
2018-02-08T22:49:39.898Z,101582.04
2018-02-08T22:52:05.754Z,101577.56
2018-02-08T22:54:31.570Z,101576.16
2018-02-08T22:56:57.416Z,101574.28
2018-02-08T22:59:23.236Z,101574.70
2018-02-08T23:01:49.144Z,101576.51
2018-02-08T23:04:14.958Z,101573.58
2018-02-08T23:06:40.782Z,101573.86
2018-02-08T23:09:06.644Z,101579.39
2018-02-08T23:11:32.464Z,101574.70
2018-02-08T23:13:58.307Z,101575.65
2018-02-08T23:16:24.126Z,101575.36
2018-02-08T23:18:49.947Z,101572.55
2018-02-08T23:21:15.769Z,101570.70
2018-02-08T23:23:41.628Z,101566.56
2018-02-08T23:26:07.478Z,101561.83
2018-02-08T23:28:33.334Z,101561.75
2018-02-08T23:30:59.200Z,101560.66
2018-02-08T23:33:25.019Z,101561.70
2018-02-08T23:35:50.876Z,101561.78
2018-02-08T23:38:16.690Z,101561.14
2018-02-08T23:40:42.547Z,101564.60
2018-02-08T23:43:08.362Z,101562.50
2018-02-08T23:45:34.206Z,101558.92
2018-02-08T23:48:00.025Z,101557.14
2018-02-08T23:50:25.887Z,101559.36
2018-02-08T23:52:51.746Z,101557.41
2018-02-08T23:55:17.974Z,101560.73
2018-02-08T23:57:43.786Z,101560.14
